createdAt,value
2018-05-17T00:01:51.108Z,98023.76
2018-05-17T00:04:18.577Z,98021.45
2018-05-17T00:06:46.054Z,98022.30
2018-05-17T00:09:13.528Z,98020.87
2018-05-17T00:11:41.005Z,98018.48
2018-05-17T00:14:08.500Z,98014.28
2018-05-17T00:16:35.966Z,98018.11
2018-05-17T00:19:03.450Z,98009.78
2018-05-17T00:21:30.921Z,98007.94
2018-05-17T00:23:58.395Z,98008.09
2018-05-17T00:26:25.892Z,98003.48
2018-05-17T00:28:53.372Z,98005.41
2018-05-17T00:31:20.863Z,98000.73
2018-05-17T00:33:48.333Z,97997.88
2018-05-17T00:36:15.797Z,97993.19
2018-05-17T00:38:43.290Z,97988.89
2018-05-17T00:41:10.767Z,97990.27
2018-05-17T00:43:38.258Z,97997.27
2018-05-17T00:46:05.731Z,97993.92
2018-05-17T00:48:33.222Z,97990.09
2018-05-17T00:51:00.692Z,97984.49
2018-05-17T00:53:32.102Z,97983.98
2018-05-17T00:55:59.587Z,97987.92
2018-05-17T00:58:27.054Z,97991.48
2018-05-17T01:00:54.545Z,97996.86
2018-05-17T01:03:22.009Z,97994.70
2018-05-17T01:05:49.510Z,97984.54
2018-05-17T01:08:16.977Z,97983.09
2018-05-17T01:10:44.457Z,97991.73
2018-05-17T01:13:11.935Z,97986.09
2018-05-17T01:15:39.399Z,97987.70
2018-05-17T01:18:06.879Z,97986.14
2018-05-17T01:20:34.347Z,97982.38
2018-05-17T01:23:01.848Z,97987.92
2018-05-17T01:25:29.336Z,97987.40
2018-05-17T01:27:56.821Z,97982.92
2018-05-17T01:30:24.305Z,97983.08
2018-05-17T01:32:51.772Z,97988.20
2018-05-17T01:35:19.251Z,97990.09
2018-05-17T01:37:58.340Z,97989.14
2018-05-17T01:40:25.816Z,97990.04
2018-05-17T01:42:53.307Z,97988.59
2018-05-17T01:45:20.779Z,97988.97
2018-05-17T01:47:48.320Z,97990.64
2018-05-17T01:50:15.797Z,97985.00
2018-05-17T01:52:43.259Z,97994.37
2018-05-17T01:55:10.754Z,97989.80
2018-05-17T01:57:38.227Z,97988.78
2018-05-17T02:00:05.721Z,97988.67
2018-05-17T02:02:33.188Z,97992.48
2018-05-17T02:05:00.656Z,97983.93
2018-05-17T02:07:28.135Z,97988.28
2018-05-17T02:09:55.608Z,97990.83
2018-05-17T02:12:23.100Z,97998.08
2018-05-17T02:14:50.572Z,97985.91
2018-05-17T02:17:18.035Z,97987.59
2018-05-17T02:19:45.520Z,97982.56
2018-05-17T02:22:12.994Z,97989.34
2018-05-17T02:24:40.944Z,97988.44
2018-05-17T02:27:08.428Z,97988.59
2018-05-17T02:29:36.173Z,97988.17
2018-05-17T02:32:03.663Z,97985.97
2018-05-17T02:34:31.141Z,97977.82
2018-05-17T02:36:58.635Z,97984.73
2018-05-17T02:39:26.125Z,97989.81
2018-05-17T02:41:53.589Z,97987.23
2018-05-17T02:44:21.079Z,97988.91
2018-05-17T02:46:48.558Z,97989.25
2018-05-17T02:49:16.177Z,97991.36
2018-05-17T02:51:43.578Z,97992.39
2018-05-17T02:54:11.049Z,98000.58
2018-05-17T02:56:38.539Z,97993.46
2018-05-17T02:59:06.017Z,97994.93
2018-05-17T03:01:33.510Z,97999.97
2018-05-17T03:04:00.984Z,97999.88
2018-05-17T03:06:28.684Z,97997.09
2018-05-17T03:08:56.153Z,97995.36
2018-05-17T03:11:23.621Z,97996.75
2018-05-17T03:13:51.112Z,98000.09
2018-05-17T03:16:18.584Z,98002.78
2018-05-17T03:18:46.070Z,97998.12
2018-05-17T03:21:13.551Z,98003.37
2018-05-17T03:23:41.047Z,98006.98
2018-05-17T03:26:08.525Z,98002.05
2018-05-17T03:28:35.997Z,98002.16
2018-05-17T03:31:03.493Z,98005.48
2018-05-17T03:33:30.953Z,98010.76
2018-05-17T03:35:58.455Z,98000.80
2018-05-17T03:38:25.939Z,98012.00
2018-05-17T03:40:53.428Z,98013.92
2018-05-17T03:43:20.936Z,98013.36
2018-05-17T03:45:48.414Z,98008.09
2018-05-17T03:48:16.382Z,98010.86
2018-05-17T03:50:43.848Z,98009.50
2018-05-17T03:53:11.329Z,98008.83
2018-05-17T03:55:38.804Z,98013.50
2018-05-17T03:58:06.272Z,98014.70
2018-05-17T04:00:45.401Z,98018.60
2018-05-17T04:03:24.580Z,98019.25
2018-05-17T04:06:03.816Z,98013.88
2018-05-17T04:08:31.316Z,98014.28
2018-05-17T04:10:58.768Z,98020.09
2018-05-17T04:13:26.281Z,98021.11
2018-05-17T04:15:53.757Z,98023.69
2018-05-17T04:18:21.253Z,98027.64
2018-05-17T04:20:48.719Z,98025.48
2018-05-17T04:23:16.184Z,98024.82
2018-05-17T04:25:43.688Z,98034.45
2018-05-17T04:28:11.239Z,98037.73
2018-05-17T04:30:38.728Z,98034.86
2018-05-17T04:33:06.192Z,98029.42
2018-05-17T04:35:33.677Z,98034.84
2018-05-17T04:38:01.160Z,98040.63
2018-05-17T04:40:28.639Z,98038.73
2018-05-17T04:42:56.124Z,98040.91
2018-05-17T04:45:23.599Z,98039.30
2018-05-17T04:47:51.064Z,98043.19
2018-05-17T04:50:18.552Z,98047.05
2018-05-17T04:52:46.024Z,98041.22
2018-05-17T04:55:13.522Z,98041.64
2018-05-17T04:57:40.991Z,98046.18
2018-05-17T05:00:08.460Z,98042.21
2018-05-17T05:02:36.266Z,98041.73
2018-05-17T05:05:03.744Z,98042.97
2018-05-17T05:07:31.240Z,98048.16
2018-05-17T05:09:58.718Z,98054.66
2018-05-17T05:12:26.875Z,98047.88
2018-05-17T05:14:54.486Z,98052.77
2018-05-17T05:17:21.969Z,98055.99
2018-05-17T05:19:49.463Z,98061.08
2018-05-17T05:22:16.956Z,98054.98
2018-05-17T05:24:44.432Z,98057.77
2018-05-17T05:27:11.915Z,98058.58
2018-05-17T05:29:39.384Z,98051.44
2018-05-17T05:32:06.880Z,98058.44
2018-05-17T05:34:34.360Z,98056.08
2018-05-17T05:37:01.840Z,98058.59
2018-05-17T05:39:29.765Z,98067.28
2018-05-17T05:41:57.236Z,98058.50
2018-05-17T05:44:24.733Z,98062.78
2018-05-17T05:46:52.208Z,98061.18
2018-05-17T05:49:19.744Z,98052.98
2018-05-17T05:51:47.195Z,98060.97
2018-05-17T05:54:14.666Z,98056.78
2018-05-17T05:56:42.170Z,98061.44
2018-05-17T05:59:09.642Z,98061.02
2018-05-17T06:01:37.129Z,98065.26
2018-05-17T06:04:04.610Z,98067.53
2018-05-17T06:06:32.080Z,98071.16
2018-05-17T06:08:59.573Z,98067.44
2018-05-17T06:11:27.143Z,98073.20
2018-05-17T06:13:54.554Z,98070.47
2018-05-17T06:16:22.165Z,98072.72
2018-05-17T06:18:49.635Z,98070.37
2018-05-17T06:21:17.118Z,98066.66
2018-05-17T06:23:44.635Z,98076.01
2018-05-17T06:26:12.105Z,98080.57
2018-05-17T06:28:39.576Z,98073.67
2018-05-17T06:31:07.061Z,98081.03
2018-05-17T06:33:35.329Z,98073.42
2018-05-17T06:36:02.798Z,98081.73
2018-05-17T06:38:30.283Z,98086.09
2018-05-17T06:40:57.762Z,98083.45
2018-05-17T06:43:25.255Z,98083.84
2018-05-17T06:45:52.719Z,98081.99
2018-05-17T06:48:20.211Z,98088.00
2018-05-17T06:50:47.707Z,98085.84
2018-05-17T06:53:15.169Z,98084.83
2018-05-17T06:55:42.658Z,98088.65
2018-05-17T06:58:10.126Z,98083.62
2018-05-17T07:00:37.700Z,98082.55
2018-05-17T07:03:05.107Z,98087.36
2018-05-17T07:05:32.572Z,98083.69
2018-05-17T07:08:00.055Z,98087.39
2018-05-17T07:10:27.544Z,98091.18
2018-05-17T07:12:55.028Z,98089.38
2018-05-17T07:15:22.506Z,98093.38
2018-05-17T07:17:50.018Z,98095.92
2018-05-17T07:20:17.488Z,98099.44
2018-05-17T07:22:44.951Z,98088.90
2018-05-17T07:25:12.439Z,98095.23
2018-05-17T07:27:39.924Z,98101.86
2018-05-17T07:30:07.386Z,98098.70
2018-05-17T07:32:34.875Z,98108.38
2018-05-17T07:35:02.347Z,98105.59
2018-05-17T07:37:29.840Z,98110.11
2018-05-17T07:39:57.316Z,98099.84
2018-05-17T07:42:24.788Z,98105.93
2018-05-17T07:44:52.276Z,98107.86
2018-05-17T07:47:19.751Z,98116.95
2018-05-17T07:49:47.243Z,98111.27
2018-05-17T07:52:14.799Z,98116.89
2018-05-17T07:54:42.205Z,98125.06
2018-05-17T07:57:09.696Z,98117.89
2018-05-17T07:59:37.173Z,98118.13
2018-05-17T08:02:04.660Z,98114.55
2018-05-17T08:04:32.134Z,98101.13
2018-05-17T08:06:59.611Z,98114.70
2018-05-17T08:09:27.103Z,98119.55
2018-05-17T08:11:54.577Z,98114.48
2018-05-17T08:14:22.103Z,98112.30
2018-05-17T08:16:50.472Z,98115.66
2018-05-17T08:19:17.945Z,98124.00
2018-05-17T08:21:45.442Z,98115.84
2018-05-17T08:24:12.908Z,98119.47
2018-05-17T08:26:40.408Z,98124.47
2018-05-17T08:29:07.872Z,98114.87
2018-05-17T08:31:35.340Z,98117.02
2018-05-17T08:34:02.827Z,98120.44
2018-05-17T08:36:30.374Z,98123.81
2018-05-17T08:38:57.812Z,98120.69
2018-05-17T08:41:25.276Z,98106.52
2018-05-17T08:43:52.740Z,98109.08
2018-05-17T08:46:20.241Z,98113.55
2018-05-17T08:48:47.711Z,98115.98
2018-05-17T08:51:15.229Z,98119.11
2018-05-17T08:53:42.697Z,98120.30
2018-05-17T08:56:10.174Z,98124.02
2018-05-17T08:58:37.658Z,98132.51
2018-05-17T09:01:05.129Z,98132.63
2018-05-17T09:03:34.712Z,98122.31
2018-05-17T09:06:02.171Z,98138.77
2018-05-17T09:08:29.643Z,98118.84
2018-05-17T09:10:57.577Z,98121.91
2018-05-17T09:13:25.137Z,98128.47
2018-05-17T09:15:52.574Z,98128.13
2018-05-17T09:18:20.064Z,98132.31
2018-05-17T09:20:47.535Z,98130.65
2018-05-17T09:23:15.012Z,98136.28
2018-05-17T09:25:42.492Z,98132.88
2018-05-17T09:28:09.992Z,98132.66
2018-05-17T09:30:37.466Z,98138.16
2018-05-17T09:33:04.943Z,98135.22
2018-05-17T09:35:32.443Z,98135.61
2018-05-17T09:37:59.905Z,98133.45
2018-05-17T09:40:27.374Z,98136.80
2018-05-17T09:42:54.875Z,98137.70
2018-05-17T09:45:22.348Z,98144.05
2018-05-17T09:47:49.847Z,98152.36
2018-05-17T09:50:17.327Z,98145.81
2018-05-17T09:52:44.805Z,98142.36
2018-05-17T09:55:12.525Z,98155.28
2018-05-17T09:57:39.995Z,98150.48
2018-05-17T10:00:07.459Z,98154.33
2018-05-17T10:02:34.950Z,98152.47
2018-05-17T10:05:02.420Z,98151.72
2018-05-17T10:07:29.903Z,98146.55
2018-05-17T10:09:57.373Z,98151.98
2018-05-17T10:12:24.857Z,98151.83
2018-05-17T10:14:52.348Z,98155.48
2018-05-17T10:17:19.817Z,98151.05
2018-05-17T10:19:47.309Z,98148.66
2018-05-17T10:22:14.775Z,98154.02
2018-05-17T10:24:42.233Z,98149.81
2018-05-17T10:27:09.810Z,98149.98
2018-05-17T10:29:37.287Z,98150.73
2018-05-17T10:32:04.781Z,98152.05
2018-05-17T10:34:32.256Z,98158.86
2018-05-17T10:36:59.725Z,98150.35
2018-05-17T10:39:27.204Z,98158.25
2018-05-17T10:41:54.671Z,98153.27
2018-05-17T10:44:22.157Z,98154.09
2018-05-17T10:46:49.622Z,98158.13
2018-05-17T10:49:17.084Z,98168.84
2018-05-17T10:51:44.576Z,98160.72
2018-05-17T10:54:12.048Z,98164.70
2018-05-17T10:56:39.772Z,98165.11
2018-05-17T10:59:07.240Z,98163.08
2018-05-17T11:01:34.707Z,98169.36
2018-05-17T11:04:03.015Z,98164.84
2018-05-17T11:06:30.483Z,98163.27
2018-05-17T11:08:57.974Z,98171.26
2018-05-17T11:11:25.456Z,98175.28
2018-05-17T11:13:52.943Z,98171.73
2018-05-17T11:16:20.431Z,98173.59
2018-05-17T11:18:47.904Z,98180.00
2018-05-17T11:21:15.377Z,98181.70
2018-05-17T11:23:42.868Z,98178.46
2018-05-17T11:26:10.332Z,98179.01
2018-05-17T11:28:37.817Z,98174.16
2018-05-17T11:31:05.291Z,98171.52
2018-05-17T11:33:32.764Z,98177.88
2018-05-17T11:36:00.264Z,98177.91
2018-05-17T11:38:27.776Z,98180.63
2018-05-17T11:40:55.247Z,98171.09
2018-05-17T11:43:22.714Z,98183.54
2018-05-17T11:45:50.184Z,98182.91
2018-05-17T11:48:17.695Z,98178.83
2018-05-17T11:50:45.169Z,98185.55
2018-05-17T11:53:13.041Z,98183.70
2018-05-17T11:55:40.527Z,98183.16
2018-05-17T11:58:07.997Z,98181.95
2018-05-17T12:00:35.497Z,98175.07
2018-05-17T12:03:02.971Z,98183.59
2018-05-17T12:05:30.451Z,98182.16
2018-05-17T12:07:57.919Z,98180.71
2018-05-17T12:10:25.384Z,98175.12
2018-05-17T12:12:52.883Z,98174.45
2018-05-17T12:15:20.352Z,98171.73
2018-05-17T12:17:47.856Z,98172.80
2018-05-17T12:20:15.327Z,98172.19
2018-05-17T12:22:42.802Z,98170.09
2018-05-17T12:25:10.303Z,98173.37
2018-05-17T12:27:37.779Z,98180.56
2018-05-17T12:30:05.256Z,98177.03
2018-05-17T12:32:32.743Z,98176.09
2018-05-17T12:35:00.214Z,98177.70
2018-05-17T12:37:27.707Z,98183.52
2018-05-17T12:39:55.183Z,98179.46
2018-05-17T12:42:22.648Z,98182.31
2018-05-17T12:44:50.135Z,98183.05
2018-05-17T12:47:17.610Z,98185.70
2018-05-17T12:49:45.099Z,98177.61
2018-05-17T12:52:12.579Z,98179.98
2018-05-17T12:54:40.049Z,98178.03
2018-05-17T12:57:07.545Z,98176.83
2018-05-17T12:59:35.027Z,98170.58
2018-05-17T13:02:02.520Z,98168.42
2018-05-17T13:04:29.991Z,98171.30
2018-05-17T13:06:57.540Z,98174.55
2018-05-17T13:09:24.970Z,98165.41
2018-05-17T13:11:52.453Z,98168.30
2018-05-17T13:14:19.974Z,98168.97
2018-05-17T13:16:47.451Z,98172.22
2018-05-17T13:19:14.934Z,98163.09
2018-05-17T13:21:42.416Z,98167.68
2018-05-17T13:24:09.926Z,98166.69
2018-05-17T13:26:37.411Z,98170.61
2018-05-17T13:29:04.888Z,98165.61
2018-05-17T13:31:32.360Z,98162.27
2018-05-17T13:33:59.841Z,98162.88
2018-05-17T13:36:27.312Z,98163.47
2018-05-17T13:38:54.780Z,98162.96
2018-05-17T13:41:22.263Z,98163.87
2018-05-17T13:43:49.743Z,98159.68
2018-05-17T13:46:17.223Z,98159.33
2018-05-17T13:48:44.686Z,98162.38
2018-05-17T13:51:12.164Z,98164.90
2018-05-17T13:53:39.627Z,98162.03
2018-05-17T13:56:07.093Z,98153.78
2018-05-17T13:58:34.588Z,98149.67
2018-05-17T14:01:02.049Z,98148.11
2018-05-17T14:03:29.523Z,98153.20
2018-05-17T14:05:56.999Z,98154.60
2018-05-17T14:08:24.468Z,98147.77
2018-05-17T14:10:51.959Z,98150.52
2018-05-17T14:13:19.420Z,98154.47
2018-05-17T14:15:46.893Z,98143.93
2018-05-17T14:18:14.392Z,98144.65
2018-05-17T14:20:41.865Z,98148.45
2018-05-17T14:23:09.523Z,98148.93
2018-05-17T14:25:37.084Z,98144.48
2018-05-17T14:28:04.549Z,98145.14
2018-05-17T14:30:33.236Z,98150.05
2018-05-17T14:33:00.712Z,98144.69
2018-05-17T14:35:28.219Z,98132.55
2018-05-17T14:37:55.716Z,98133.84
2018-05-17T14:40:23.201Z,98124.19
2018-05-17T14:42:50.685Z,98124.52
2018-05-17T14:45:18.162Z,98125.89
2018-05-17T14:47:45.648Z,98131.55
2018-05-17T14:50:13.120Z,98132.63
2018-05-17T14:52:40.612Z,98128.89
2018-05-17T14:55:08.088Z,98137.73
2018-05-17T14:57:35.601Z,98127.00
2018-05-17T15:00:03.074Z,98129.81
2018-05-17T15:02:30.547Z,98129.12
2018-05-17T15:04:58.043Z,98132.35
2018-05-17T15:07:25.519Z,98130.42
2018-05-17T15:09:52.996Z,98135.30
2018-05-17T15:12:20.465Z,98126.93
2018-05-17T15:14:47.943Z,98127.83
2018-05-17T15:17:15.412Z,98126.53
2018-05-17T15:19:42.889Z,98124.91
2018-05-17T15:22:10.435Z,98119.11
2018-05-17T15:24:37.970Z,98121.41
2018-05-17T15:27:05.416Z,98118.88
2018-05-17T15:29:32.896Z,98119.69
2018-05-17T15:32:00.392Z,98121.28
2018-05-17T15:34:27.853Z,98128.80
2018-05-17T15:36:55.327Z,98121.59
2018-05-17T15:39:22.812Z,98124.08
2018-05-17T15:41:50.276Z,98129.17
2018-05-17T15:44:17.748Z,98131.13
2018-05-17T15:46:45.217Z,98129.77
2018-05-17T15:49:12.680Z,98125.29
2018-05-17T15:51:40.174Z,98131.34
2018-05-17T15:54:07.658Z,98128.94
2018-05-17T15:56:35.137Z,98128.33
2018-05-17T15:59:02.615Z,98121.29
2018-05-17T16:01:30.072Z,98126.30
2018-05-17T16:03:57.562Z,98131.10
2018-05-17T16:06:25.507Z,98130.92
2018-05-17T16:08:53.108Z,98133.80
2018-05-17T16:11:20.567Z,98138.67
2018-05-17T16:13:48.027Z,98138.73
2018-05-17T16:16:15.512Z,98141.91
2018-05-17T16:18:43.002Z,98142.02
2018-05-17T16:21:10.467Z,98143.41
2018-05-17T16:23:37.948Z,98145.30
2018-05-17T16:26:05.417Z,98146.75
2018-05-17T16:28:32.912Z,98146.08
2018-05-17T16:31:00.379Z,98146.89
2018-05-17T16:33:27.849Z,98147.41
2018-05-17T16:39:25.739Z,98152.02
2018-05-17T16:41:53.203Z,98156.28
2018-05-17T16:44:20.683Z,98158.25
2018-05-17T16:46:48.172Z,98153.28
2018-05-17T16:49:15.645Z,98160.91
2018-05-17T16:51:43.133Z,98154.53
2018-05-17T16:54:10.622Z,98152.95
2018-05-17T16:56:38.093Z,98158.36
2018-05-17T16:59:05.578Z,98148.98
2018-05-17T17:01:33.049Z,98159.77
2018-05-17T17:04:00.548Z,98150.96
2018-05-17T17:06:28.464Z,98162.37
2018-05-17T17:08:55.928Z,98160.01
2018-05-17T17:11:23.408Z,98164.13
2018-05-17T17:13:50.871Z,98157.92
2018-05-17T17:16:18.347Z,98158.33
2018-05-17T17:18:45.818Z,98161.80
2018-05-17T17:21:13.288Z,98160.27
2018-05-17T17:23:40.779Z,98162.02
2018-05-17T17:26:08.247Z,98161.55
2018-05-17T17:28:35.742Z,98164.46
2018-05-17T17:31:03.215Z,98164.50
2018-05-17T17:33:30.847Z,98167.69
2018-05-17T17:35:58.315Z,98165.28
2018-05-17T17:38:25.830Z,98174.75
2018-05-17T17:40:53.300Z,98175.56
2018-05-17T17:43:20.766Z,98172.54
2018-05-17T17:45:48.247Z,98173.16
2018-05-17T17:48:15.716Z,98187.30
2018-05-17T17:50:43.210Z,98184.18
2018-05-17T17:53:10.698Z,98186.92
2018-05-17T17:55:38.243Z,98190.71
2018-05-17T17:58:06.216Z,98198.10
2018-05-17T18:00:33.683Z,98193.36
2018-05-17T18:03:01.175Z,98194.89
2018-05-17T18:05:29.593Z,98202.84
2018-05-17T18:07:57.319Z,98199.90
2018-05-17T18:10:24.818Z,98191.89
2018-05-17T18:12:52.287Z,98194.09
2018-05-17T18:15:19.863Z,98202.31
2018-05-17T18:17:47.505Z,98203.97
2018-05-17T18:20:15.118Z,98210.74
2018-05-17T18:22:44.211Z,98205.09
2018-05-17T18:25:12.347Z,98200.03
2018-05-17T18:27:40.384Z,98207.73
2018-05-17T18:30:07.987Z,98203.89
2018-05-17T18:32:35.896Z,98209.00
2018-05-17T18:35:03.357Z,98205.39
2018-05-17T18:37:30.842Z,98208.72
2018-05-17T18:39:58.546Z,98213.81
2018-05-17T18:42:26.030Z,98222.55
2018-05-17T18:44:53.737Z,98228.13
2018-05-17T18:47:21.315Z,98227.06
2018-05-17T18:49:48.995Z,98231.19
2018-05-17T18:52:16.543Z,98232.87
2018-05-17T18:54:44.329Z,98233.47
2018-05-17T18:57:12.107Z,98243.99
2018-05-17T18:59:39.863Z,98249.19
2018-05-17T19:02:07.768Z,98244.98
2018-05-17T19:04:35.260Z,98250.77
2018-05-17T19:07:03.208Z,98252.53
2018-05-17T19:09:30.887Z,98255.17
2018-05-17T19:11:58.363Z,98270.30
2018-05-17T19:14:25.834Z,98264.92
2018-05-17T19:16:53.328Z,98264.87
2018-05-17T19:19:20.795Z,98274.82
2018-05-17T19:21:48.439Z,98276.33
2018-05-17T19:24:15.904Z,98283.98
2018-05-17T19:26:43.372Z,98291.23
2018-05-17T19:29:10.852Z,98299.39
2018-05-17T19:31:38.410Z,98310.47
2018-05-17T19:34:05.836Z,98310.17
2018-05-17T19:36:33.308Z,98307.83
2018-05-17T19:39:00.789Z,98308.73
2018-05-17T19:41:28.275Z,98312.91
2018-05-17T19:43:55.740Z,98310.33
2018-05-17T19:46:23.239Z,98317.25
2018-05-17T19:48:50.712Z,98320.31
2018-05-17T19:51:18.177Z,98321.57
2018-05-17T19:53:45.664Z,98325.78
2018-05-17T19:56:13.145Z,98319.35
2018-05-17T19:58:40.717Z,98321.55
2018-05-17T20:01:08.120Z,98327.45
2018-05-17T20:03:35.664Z,98329.17
2018-05-17T20:06:03.148Z,98324.16
2018-05-17T20:08:30.625Z,98327.05
2018-05-17T20:10:58.105Z,98328.41
2018-05-17T20:13:25.580Z,98331.63
2018-05-17T20:15:53.540Z,98331.55
2018-05-17T20:18:21.009Z,98336.05
2018-05-17T20:20:48.467Z,98342.41
2018-05-17T20:23:15.966Z,98341.64
2018-05-17T20:25:43.436Z,98340.51
2018-05-17T20:28:10.924Z,98345.30
2018-05-17T20:30:38.397Z,98344.23
2018-05-17T20:33:05.877Z,98342.45
2018-05-17T20:35:33.364Z,98350.17
2018-05-17T20:38:00.839Z,98349.72
2018-05-17T20:40:28.325Z,98351.32
2018-05-17T20:42:55.794Z,98347.84
2018-05-17T20:45:23.263Z,98350.94
2018-05-17T20:47:50.761Z,98347.16
2018-05-17T20:50:18.225Z,98343.31
2018-05-17T20:52:45.713Z,98345.59
2018-05-17T20:55:13.254Z,98344.32
2018-05-17T20:57:40.671Z,98347.67
2018-05-17T21:00:08.169Z,98342.50
2018-05-17T21:02:35.653Z,98346.58
2018-05-17T21:05:03.152Z,98343.39
2018-05-17T21:07:32.729Z,98347.76
2018-05-17T21:10:00.200Z,98350.11
2018-05-17T21:12:27.681Z,98355.37
2018-05-17T21:14:55.148Z,98345.59
2018-05-17T21:17:22.635Z,98349.69
2018-05-17T21:19:50.111Z,98355.01
2018-05-17T21:22:17.576Z,98351.36
2018-05-17T21:24:45.061Z,98353.78
2018-05-17T21:27:12.558Z,98350.39
2018-05-17T21:29:40.036Z,98348.68
2018-05-17T21:32:07.507Z,98349.20
2018-05-17T21:34:34.989Z,98346.78
2018-05-17T21:37:02.465Z,98366.23
2018-05-17T21:39:30.008Z,98358.88
2018-05-17T21:41:57.427Z,98366.64
2018-05-17T21:44:24.893Z,98359.56
2018-05-17T21:46:52.376Z,98355.05
2018-05-17T21:49:19.848Z,98358.67
2018-05-17T21:51:47.335Z,98357.33
2018-05-17T21:54:14.805Z,98361.20
2018-05-17T21:56:42.285Z,98365.38
2018-05-17T21:59:09.768Z,98362.16
2018-05-17T22:01:37.573Z,98358.35
2018-05-17T22:04:05.071Z,98366.46
2018-05-17T22:06:32.536Z,98367.00
2018-05-17T22:09:00.011Z,98362.98
2018-05-17T22:11:27.519Z,98366.50
2018-05-17T22:13:54.988Z,98361.94
2018-05-17T22:16:22.772Z,98362.08
2018-05-17T22:18:50.241Z,98360.50
2018-05-17T22:21:17.703Z,98361.24
2018-05-17T22:23:45.192Z,98363.52
2018-05-17T22:26:12.665Z,98363.77
2018-05-17T22:28:41.176Z,98365.98
2018-05-17T22:31:08.672Z,98370.98
2018-05-17T22:33:36.140Z,98371.14
2018-05-17T22:36:03.624Z,98375.16
2018-05-17T22:38:31.088Z,98369.73
2018-05-17T22:40:58.578Z,98365.11
2018-05-17T22:43:26.055Z,98365.19
2018-05-17T22:45:53.550Z,98361.97
2018-05-17T22:48:21.901Z,98362.53
2018-05-17T22:50:49.368Z,98358.07
2018-05-17T22:53:16.855Z,98359.09
2018-05-17T22:55:44.319Z,98351.73
2018-05-17T22:58:23.672Z,98344.90
2018-05-17T23:00:51.147Z,98341.91
2018-05-17T23:03:18.636Z,98348.88
2018-05-17T23:05:46.116Z,98352.14
2018-05-17T23:08:13.953Z,98345.41
2018-05-17T23:10:41.425Z,98342.40
2018-05-17T23:13:08.909Z,98336.64
2018-05-17T23:15:36.401Z,98336.12
2018-05-17T23:18:03.872Z,98337.20
2018-05-17T23:20:31.370Z,98332.40
2018-05-17T23:22:58.857Z,98337.44
2018-05-17T23:25:26.332Z,98335.09
2018-05-17T23:27:53.836Z,98336.04
2018-05-17T23:30:21.313Z,98343.95
2018-05-17T23:32:49.656Z,98348.33
2018-05-17T23:35:17.139Z,98350.55
2018-05-17T23:37:44.624Z,98349.45
2018-05-17T23:40:23.920Z,98344.41
2018-05-17T23:42:51.395Z,98347.55
2018-05-17T23:45:18.908Z,98351.66
2018-05-17T23:47:46.376Z,98352.22
2018-05-17T23:50:14.203Z,98357.45
2018-05-17T23:52:41.675Z,98354.81
2018-05-17T23:55:09.152Z,98360.38
2018-05-17T23:57:36.640Z,98371.23
